Time;durP1;ratioP1;P1;durP2;ratioP2;P2;SDS_P1;SDS_P2;PMS_P1;PMS_P2;Temp;Humidity;BMP_temperature;BMP_pressure;BME280_temperature;BME280_humidity;BME280_pressure;Samples;Min_cycle;Max_cycle;Signal;HPM_P1;HPM_P2
2022/05/08 00:00:26;;;;;;;14.10;12.68;;;;;;;;;;5104362;28;20199;-68
2022/05/08 00:02:55;;;;;;;14.23;12.90;;;;;;;;;;5104206;28;20199;-68
2022/05/08 00:05:23;;;;;;;14.07;12.88;;;;;;;;;;5104174;28;20291;-68
2022/05/08 00:07:49;;;;;;;14.40;13.00;;;;;;;;;;5104123;28;20196;-68
2022/05/08 00:10:15;;;;;;;12.95;11.65;;;;;;;;;;5104230;28;20459;-68
2022/05/08 00:12:42;;;;;;;13.38;11.98;;;;;;;;;;5104141;28;20542;-68
2022/05/08 00:15:08;;;;;;;13.65;12.30;;;;;;;;;;5104106;28;20195;-68
2022/05/08 00:17:35;;;;;;;13.60;12.18;;;;;;;;;;5102733;28;20202;-68
2022/05/08 00:20:02;;;;;;;14.77;11.98;;;;;;;;;;5103966;28;20195;-68
2022/05/08 00:22:29;;;;;;;14.45;12.30;;;;;;;;;;5104240;28;20215;-68
2022/05/08 00:24:56;;;;;;;13.32;11.98;;;;;;;;;;5103921;28;20202;-68
2022/05/08 00:27:22;;;;;;;15.18;13.57;;;;;;;;;;5103763;28;20267;-68
2022/05/08 00:29:48;;;;;;;15.65;12.55;;;;;;;;;;5104214;28;20200;-68
2022/05/08 00:32:15;;;;;;;14.75;12.93;;;;;;;;;;5103553;28;20211;-68
2022/05/08 00:34:41;;;;;;;16.13;12.77;;;;;;;;;;5103499;28;20196;-68
2022/05/08 00:37:07;;;;;;;13.60;12.13;;;;;;;;;;5103353;28;20278;-68
2022/05/08 00:39:35;;;;;;;13.93;12.23;;;;;;;;;;5103502;28;20195;-68
2022/05/08 00:42:01;;;;;;;13.02;11.80;;;;;;;;;;5103575;28;20418;-68
2022/05/08 00:44:27;;;;;;;13.93;12.48;;;;;;;;;;5103575;28;20439;-68
2022/05/08 00:46:54;;;;;;;12.45;11.30;;;;;;;;;;5103673;28;20203;-68
2022/05/08 00:49:20;;;;;;;13.75;11.98;;;;;;;;;;5103615;28;20230;-68
2022/05/08 00:51:49;;;;;;;14.32;12.88;;;;;;;;;;5103404;28;20223;-68
2022/05/08 00:54:15;;;;;;;13.80;12.25;;;;;;;;;;5103692;28;20403;-68
2022/05/08 00:56:43;;;;;;;13.95;12.32;;;;;;;;;;5103095;28;20196;-68
2022/05/08 00:59:10;;;;;;;12.80;11.70;;;;;;;;;;5103032;28;20245;-68
2022/05/08 01:01:36;;;;;;;12.68;11.48;;;;;;;;;;5103083;28;20203;-68
2022/05/08 01:04:03;;;;;;;13.07;11.75;;;;;;;;;;5103041;28;20207;-68
2022/05/08 01:06:30;;;;;;;14.35;12.85;;;;;;;;;;5102757;28;20223;-68
2022/05/08 01:08:57;;;;;;;14.38;12.57;;;;;;;;;;5103435;28;20199;-68
2022/05/08 01:11:23;;;;;;;12.73;11.32;;;;;;;;;;5103011;28;20231;-68
2022/05/08 01:13:51;;;;;;;13.65;12.38;;;;;;;;;;5102963;28;20229;-68
2022/05/08 01:16:18;;;;;;;12.73;11.40;;;;;;;;;;5102682;28;20207;-68
2022/05/08 01:18:44;;;;;;;13.70;12.25;;;;;;;;;;5103280;28;20211;-68
2022/05/08 01:21:11;;;;;;;14.27;12.88;;;;;;;;;;5102980;28;20196;-68
2022/05/08 01:23:39;;;;;;;13.73;12.25;;;;;;;;;;5102863;28;20199;-68
2022/05/08 01:26:05;;;;;;;15.02;12.48;;;;;;;;;;5102659;28;20542;-68
2022/05/08 01:28:31;;;;;;;13.13;11.80;;;;;;;;;;5102246;28;20231;-68
2022/05/08 01:30:58;;;;;;;14.05;11.85;;;;;;;;;;5102750;28;20204;-68
2022/05/08 01:33:24;;;;;;;13.02;11.60;;;;;;;;;;5102522;28;20246;-68
2022/05/08 01:35:51;;;;;;;12.48;11.27;;;;;;;;;;5102666;28;20203;-68
2022/05/08 01:38:18;;;;;;;12.73;11.40;;;;;;;;;;5101873;28;20368;-68
2022/05/08 01:40:46;;;;;;;12.10;11.10;;;;;;;;;;5102819;28;20196;-68
2022/05/08 01:43:12;;;;;;;10.68;9.77;;;;;;;;;;5102640;28;20499;-68
2022/05/08 01:45:39;;;;;;;10.90;9.88;;;;;;;;;;5102481;28;20202;-68
2022/05/08 01:48:23;;;;;;;11.15;10.15;;;;;;;;;;5102262;28;20218;-68
2022/05/08 01:50:50;;;;;;;11.00;10.07;;;;;;;;;;5102402;28;20488;-68
2022/05/08 01:53:16;;;;;;;11.30;10.27;;;;;;;;;;5102431;28;20223;-68
2022/05/08 01:55:43;;;;;;;11.18;10.05;;;;;;;;;;5102660;28;20493;-68
2022/05/08 01:58:10;;;;;;;10.85;9.93;;;;;;;;;;5102191;28;20253;-68
2022/05/08 02:00:37;;;;;;;11.77;10.55;;;;;;;;;;5102416;28;20200;-68
2022/05/08 02:03:04;;;;;;;11.80;10.63;;;;;;;;;;5102260;28;20199;-68
2022/05/08 02:05:31;;;;;;;11.02;10.02;;;;;;;;;;5102402;28;20216;-68
2022/05/08 02:07:57;;;;;;;10.60;9.65;;;;;;;;;;5102387;28;20203;-68
2022/05/08 02:10:24;;;;;;;12.63;11.43;;;;;;;;;;5102250;28;20184;-67
2022/05/08 02:12:50;;;;;;;11.90;10.57;;;;;;;;;;5102114;28;20220;-68
2022/05/08 02:15:18;;;;;;;12.75;11.55;;;;;;;;;;5102298;28;20200;-68
2022/05/08 02:17:44;;;;;;;12.10;10.95;;;;;;;;;;5101956;28;20196;-68
2022/05/08 02:20:11;;;;;;;12.25;11.00;;;;;;;;;;5102358;28;20495;-68
2022/05/08 02:22:37;;;;;;;11.13;10.30;;;;;;;;;;5102474;28;20282;-68
2022/05/08 02:25:04;;;;;;;11.73;10.82;;;;;;;;;;5102153;28;20202;-68
2022/05/08 02:27:35;;;;;;;11.85;10.65;;;;;;;;;;5101961;28;20317;-68
2022/05/08 02:30:01;;;;;;;11.57;10.57;;;;;;;;;;5102121;28;20201;-68
2022/05/08 02:32:29;;;;;;;13.38;11.07;;;;;;;;;;5101959;28;20215;-68
2022/05/08 02:34:55;;;;;;;12.55;10.98;;;;;;;;;;5102177;28;20241;-68
2022/05/08 02:37:21;;;;;;;11.82;10.77;;;;;;;;;;5101862;28;20196;-68
2022/05/08 02:39:48;;;;;;;12.20;10.93;;;;;;;;;;5102211;28;20250;-68
2022/05/08 02:42:14;;;;;;;12.10;10.85;;;;;;;;;;5105976;28;20191;-68
2022/05/08 02:44:41;;;;;;;12.23;11.15;;;;;;;;;;5105816;28;20196;-68
2022/05/08 02:47:07;;;;;;;11.73;10.68;;;;;;;;;;5105473;28;20203;-68
2022/05/08 02:49:35;;;;;;;14.05;10.52;;;;;;;;;;5105929;28;20196;-68
2022/05/08 02:52:01;;;;;;;12.30;11.20;;;;;;;;;;5105559;28;20245;-68
2022/05/08 02:54:27;;;;;;;12.68;11.38;;;;;;;;;;5105759;28;20203;-68
2022/05/08 02:59:37;;;;;;;12.25;11.13;;;;;;;;;;5105527;28;20233;-68
2022/05/08 03:02:03;;;;;;;13.38;12.02;;;;;;;;;;5105597;28;20199;-68
2022/05/08 03:04:29;;;;;;;12.13;10.93;;;;;;;;;;5105635;28;20234;-68
2022/05/08 03:06:57;;;;;;;13.63;12.15;;;;;;;;;;5105319;28;20215;-68
2022/05/08 03:09:23;;;;;;;12.55;11.45;;;;;;;;;;5105504;28;20203;-68
2022/05/08 03:11:50;;;;;;;12.88;11.60;;;;;;;;;;5105309;28;20211;-68
2022/05/08 03:14:16;;;;;;;13.88;12.30;;;;;;;;;;5105334;28;20211;-68
2022/05/08 03:16:42;;;;;;;12.45;11.13;;;;;;;;;;5105184;28;20555;-68
2022/05/08 03:19:09;;;;;;;12.13;11.10;;;;;;;;;;5105315;28;20557;-68
2022/05/08 03:21:35;;;;;;;12.85;11.75;;;;;;;;;;5105233;28;20511;-68
2022/05/08 03:24:03;;;;;;;12.75;11.75;;;;;;;;;;5105166;28;20438;-68
2022/05/08 03:26:31;;;;;;;11.73;10.63;;;;;;;;;;5104700;28;20196;-68
2022/05/08 03:28:57;;;;;;;13.35;12.02;;;;;;;;;;5105189;28;20199;-68
2022/05/08 03:31:23;;;;;;;11.95;10.80;;;;;;;;;;5105129;28;20196;-68
2022/05/08 03:33:50;;;;;;;12.50;11.15;;;;;;;;;;5104874;28;20289;-68
2022/05/08 03:36:17;;;;;;;12.02;10.82;;;;;;;;;;5104721;28;20249;-68
2022/05/08 03:38:43;;;;;;;12.30;11.10;;;;;;;;;;5104794;28;20196;-68
2022/05/08 03:41:15;;;;;;;11.27;10.15;;;;;;;;;;5104638;28;20199;-68
2022/05/08 03:43:41;;;;;;;10.98;9.98;;;;;;;;;;5104884;28;20199;-68
2022/05/08 03:46:07;;;;;;;11.65;10.55;;;;;;;;;;5104676;28;20196;-68
2022/05/08 03:48:35;;;;;;;12.13;11.02;;;;;;;;;;5104580;28;20233;-68
2022/05/08 03:51:01;;;;;;;12.30;11.10;;;;;;;;;;5104465;28;20564;-68
2022/05/08 03:53:28;;;;;;;12.00;11.00;;;;;;;;;;5104618;28;20215;-68
2022/05/08 03:55:54;;;;;;;12.55;11.43;;;;;;;;;;5104893;28;20199;-68
2022/05/08 03:58:21;;;;;;;12.05;10.90;;;;;;;;;;5104476;28;20391;-68
2022/05/08 04:00:48;;;;;;;12.82;11.32;;;;;;;;;;5104622;28;20200;-68
2022/05/08 04:03:14;;;;;;;11.82;10.75;;;;;;;;;;5104391;28;20200;-68
2022/05/08 04:05:40;;;;;;;11.90;10.80;;;;;;;;;;5104243;28;20222;-68
2022/05/08 04:08:07;;;;;;;12.00;10.93;;;;;;;;;;5104043;28;20195;-68
2022/05/08 04:10:34;;;;;;;12.45;10.52;;;;;;;;;;5104412;28;20253;-67
2022/05/08 04:13:00;;;;;;;12.55;11.38;;;;;;;;;;5104382;28;20285;-68
2022/05/08 04:18:12;;;;;;;12.77;10.50;;;;;;;;;;5103804;28;20198;-67
2022/05/08 04:20:38;;;;;;;12.77;11.60;;;;;;;;;;5104047;28;20208;-67
2022/05/08 04:25:51;;;;;;;11.07;10.18;;;;;;;;;;5104014;28;20225;-67
2022/05/08 04:28:19;;;;;;;12.13;11.02;;;;;;;;;;5103824;28;20233;-67
2022/05/08 04:30:46;;;;;;;13.38;11.25;;;;;;;;;;5103806;28;20196;-67
2022/05/08 04:33:12;;;;;;;13.80;12.38;;;;;;;;;;5104591;28;20212;-68
2022/05/08 04:35:39;;;;;;;12.88;11.77;;;;;;;;;;5104027;28;20256;-67
2022/05/08 04:38:05;;;;;;;13.77;12.38;;;;;;;;;;5103594;28;20196;-67
2022/05/08 04:40:31;;;;;;;14.10;12.70;;;;;;;;;;5103748;28;20201;-68
2022/05/08 04:42:58;;;;;;;13.50;12.35;;;;;;;;;;5103697;28;20207;-68
2022/05/08 04:45:24;;;;;;;13.55;12.02;;;;;;;;;;5104051;28;20203;-68
2022/05/08 04:47:51;;;;;;;12.93;11.77;;;;;;;;;;5103189;28;20195;-68
2022/05/08 04:50:18;;;;;;;13.13;11.93;;;;;;;;;;5103644;28;20432;-68
2022/05/08 04:52:44;;;;;;;14.05;12.18;;;;;;;;;;5103504;28;20215;-68
2022/05/08 04:55:10;;;;;;;13.00;11.85;;;;;;;;;;5103469;28;20420;-68
2022/05/08 04:57:36;;;;;;;13.55;12.15;;;;;;;;;;5103128;28;20196;-68
2022/05/08 05:00:04;;;;;;;14.40;12.82;;;;;;;;;;5103274;28;20199;-68
2022/05/08 05:02:30;;;;;;;13.55;12.35;;;;;;;;;;5102593;28;20250;-68
2022/05/08 05:04:58;;;;;;;14.77;12.93;;;;;;;;;;5103112;28;20261;-68
2022/05/08 05:07:24;;;;;;;13.98;12.68;;;;;;;;;;5103094;28;20195;-68
2022/05/08 05:09:50;;;;;;;14.80;13.30;;;;;;;;;;5103199;28;20195;-68
2022/05/08 05:12:17;;;;;;;14.32;12.82;;;;;;;;;;5103084;28;20245;-68
2022/05/08 05:14:43;;;;;;;14.32;13.00;;;;;;;;;;5103032;28;20196;-68
2022/05/08 05:17:09;;;;;;;14.23;12.82;;;;;;;;;;5102540;28;20277;-68
2022/05/08 05:19:36;;;;;;;14.30;12.90;;;;;;;;;;5103094;28;20200;-68
2022/05/08 05:22:04;;;;;;;14.23;12.82;;;;;;;;;;5103052;28;20202;-68
2022/05/08 05:24:30;;;;;;;15.25;13.68;;;;;;;;;;5102987;28;20199;-68
2022/05/08 05:26:56;;;;;;;14.65;13.30;;;;;;;;;;5102629;28;20394;-68
2022/05/08 05:29:22;;;;;;;15.35;13.57;;;;;;;;;;5102830;28;20561;-68
2022/05/08 05:31:49;;;;;;;14.75;13.38;;;;;;;;;;5102870;28;20383;-68
2022/05/08 05:34:15;;;;;;;15.07;13.52;;;;;;;;;;5102757;28;20433;-68
2022/05/08 05:36:41;;;;;;;13.98;12.70;;;;;;;;;;5102621;28;20203;-69
2022/05/08 05:39:09;;;;;;;14.15;12.85;;;;;;;;;;5102661;28;20205;-67
2022/05/08 05:41:35;;;;;;;14.07;12.77;;;;;;;;;;5102624;28;20188;-67
2022/05/08 05:44:01;;;;;;;14.02;12.82;;;;;;;;;;5102415;28;20196;-67
2022/05/08 05:52:02;;;;;;;14.98;13.68;;;;;;;;;;5100134;28;20491;-67
2022/05/08 05:54:29;;;;;;;14.50;13.00;;;;;;;;;;5102757;28;20221;-67
2022/05/08 05:56:55;;;;;;;14.82;13.13;;;;;;;;;;5102438;28;20212;-67
2022/05/08 05:59:22;;;;;;;14.30;13.10;;;;;;;;;;5102781;28;20202;-67
2022/05/08 06:01:48;;;;;;;14.52;13.23;;;;;;;;;;5102240;28;20196;-67
2022/05/08 06:04:14;;;;;;;15.23;13.70;;;;;;;;;;5102421;28;20191;-67
2022/05/08 06:06:41;;;;;;;15.18;13.77;;;;;;;;;;5102061;28;20546;-67
2022/05/08 06:09:07;;;;;;;15.23;13.82;;;;;;;;;;5102193;28;20413;-67
2022/05/08 06:11:35;;;;;;;15.18;13.57;;;;;;;;;;5102754;28;20223;-67
2022/05/08 06:14:01;;;;;;;15.68;14.18;;;;;;;;;;5102313;28;20223;-67
2022/05/08 06:16:28;;;;;;;16.27;14.68;;;;;;;;;;5105333;28;20203;-67
2022/05/08 06:18:54;;;;;;;16.83;15.13;;;;;;;;;;5106572;28;20221;-67
2022/05/08 06:21:20;;;;;;;17.33;14.68;;;;;;;;;;5106461;28;20257;-67
2022/05/08 06:23:47;;;;;;;18.20;15.20;;;;;;;;;;5106156;28;20433;-67
2022/05/08 06:26:15;;;;;;;16.92;15.20;;;;;;;;;;5106228;28;20242;-67
2022/05/08 06:28:43;;;;;;;18.48;16.02;;;;;;;;;;5106327;28;20224;-67
2022/05/08 06:31:09;;;;;;;15.73;14.23;;;;;;;;;;5106561;28;20385;-67
2022/05/08 06:33:35;;;;;;;15.95;14.30;;;;;;;;;;5106099;28;20446;-67
2022/05/08 06:36:02;;;;;;;17.20;14.63;;;;;;;;;;5105888;28;20211;-67
2022/05/08 06:38:28;;;;;;;17.60;15.93;;;;;;;;;;5106183;28;20204;-67
2022/05/08 06:40:54;;;;;;;15.75;14.05;;;;;;;;;;5106248;28;20195;-67
2022/05/08 06:43:20;;;;;;;16.65;15.10;;;;;;;;;;5106208;28;20229;-67
2022/05/08 06:45:48;;;;;;;20.10;14.95;;;;;;;;;;5105917;28;20309;-67
2022/05/08 06:48:14;;;;;;;16.65;14.98;;;;;;;;;;5105791;28;20257;-67
2022/05/08 06:50:40;;;;;;;17.88;14.88;;;;;;;;;;5105796;28;20220;-67
2022/05/08 06:53:07;;;;;;;17.98;15.18;;;;;;;;;;5105904;28;20538;-67
2022/05/08 06:55:33;;;;;;;17.75;14.40;;;;;;;;;;5106064;28;20379;-67
2022/05/08 06:58:00;;;;;;;16.25;14.80;;;;;;;;;;5105306;28;20199;-67
2022/05/08 07:03:11;;;;;;;21.33;18.92;;;;;;;;;;5105523;28;20195;-67
2022/05/08 07:05:40;;;;;;;19.15;16.17;;;;;;;;;;5105632;28;20551;-67
2022/05/08 07:08:06;;;;;;;17.05;15.25;;;;;;;;;;5105370;28;20230;-67
2022/05/08 07:10:33;;;;;;;16.70;15.20;;;;;;;;;;5105587;28;20207;-67
2022/05/08 07:12:59;;;;;;;17.58;15.77;;;;;;;;;;5105324;28;20195;-67
2022/05/08 07:15:25;;;;;;;16.83;15.13;;;;;;;;;;5105356;28;20202;-67
2022/05/08 07:17:51;;;;;;;19.23;17.15;;;;;;;;;;5105358;28;20550;-67
2022/05/08 07:20:19;;;;;;;18.20;16.33;;;;;;;;;;5105472;28;20203;-67
2022/05/08 07:22:45;;;;;;;17.27;15.48;;;;;;;;;;5105292;28;20199;-67
2022/05/08 07:25:12;;;;;;;17.90;16.00;;;;;;;;;;5105222;28;20199;-67
2022/05/08 07:27:40;;;;;;;16.38;14.68;;;;;;;;;;5104378;28;20387;-67
2022/05/08 07:30:06;;;;;;;18.25;16.52;;;;;;;;;;5105122;28;20286;-68
2022/05/08 07:32:33;;;;;;;18.23;16.52;;;;;;;;;;5104947;28;20206;-67
2022/05/08 07:37:44;;;;;;;17.65;15.85;;;;;;;;;;5104815;28;20229;-67
2022/05/08 07:40:11;;;;;;;19.15;17.08;;;;;;;;;;5104956;28;20226;-67
2022/05/08 07:42:37;;;;;;;22.02;16.00;;;;;;;;;;5104839;28;20192;-67
2022/05/08 07:45:04;;;;;;;18.52;16.73;;;;;;;;;;5104970;28;20435;-67
2022/05/08 07:47:30;;;;;;;18.80;16.80;;;;;;;;;;5104625;28;20203;-67
2022/05/08 07:49:56;;;;;;;18.80;16.90;;;;;;;;;;5104633;28;20272;-67
2022/05/08 07:52:23;;;;;;;17.13;15.43;;;;;;;;;;5104716;28;20491;-67
2022/05/08 07:54:50;;;;;;;19.92;17.42;;;;;;;;;;5104590;28;20543;-67
2022/05/08 07:57:17;;;;;;;18.70;16.75;;;;;;;;;;5104431;28;20212;-67
2022/05/08 07:59:43;;;;;;;16.88;15.18;;;;;;;;;;5104715;28;20200;-67
2022/05/08 08:02:10;;;;;;;18.92;16.02;;;;;;;;;;5104436;28;20253;-67
2022/05/08 08:04:36;;;;;;;17.92;15.85;;;;;;;;;;5104542;28;20213;-67
2022/05/08 08:07:02;;;;;;;17.20;15.65;;;;;;;;;;5104210;28;20195;-67
2022/05/08 08:09:29;;;;;;;17.95;16.35;;;;;;;;;;5104267;28;20199;-67
2022/05/08 08:11:56;;;;;;;16.80;15.23;;;;;;;;;;5104104;28;20200;-67
2022/05/08 08:14:23;;;;;;;16.88;15.27;;;;;;;;;;5104089;28;20226;-67
2022/05/08 08:16:49;;;;;;;16.60;15.05;;;;;;;;;;5103958;28;20199;-67
2022/05/08 08:19:15;;;;;;;16.23;14.68;;;;;;;;;;5104209;28;20426;-67
2022/05/08 08:21:41;;;;;;;16.48;14.80;;;;;;;;;;5104135;28;20356;-67
2022/05/08 08:24:08;;;;;;;19.02;15.20;;;;;;;;;;5104183;28;20439;-67
2022/05/08 08:26:36;;;;;;;17.55;15.85;;;;;;;;;;5103778;28;20196;-67
2022/05/08 08:29:03;;;;;;;16.63;15.00;;;;;;;;;;5104192;28;20202;-67
2022/05/08 08:31:29;;;;;;;17.25;15.45;;;;;;;;;;5104128;28;20187;-67
2022/05/08 08:33:58;;;;;;;16.20;14.65;;;;;;;;;;5103882;28;20216;-67
2022/05/08 08:36:24;;;;;;;16.98;15.30;;;;;;;;;;5103856;28;20556;-67
2022/05/08 08:38:51;;;;;;;15.95;14.45;;;;;;;;;;5102827;28;20199;-67
2022/05/08 08:41:20;;;;;;;15.10;13.65;;;;;;;;;;5103700;28;20264;-67
2022/05/08 08:49:20;;;;;;;17.85;14.88;;;;;;;;;;5103650;28;20195;-67
2022/05/08 08:51:46;;;;;;;16.77;15.07;;;;;;;;;;5103303;28;20280;-68
2022/05/08 08:54:12;;;;;;;14.98;13.45;;;;;;;;;;5103600;28;20418;-68
2022/05/08 08:56:39;;;;;;;16.67;14.27;;;;;;;;;;5103079;28;20195;-68
2022/05/08 08:59:05;;;;;;;15.88;14.18;;;;;;;;;;5103173;28;20217;-68
2022/05/08 09:01:34;;;;;;;14.93;13.45;;;;;;;;;;5103275;28;20266;-68
2022/05/08 09:04:01;;;;;;;13.82;12.43;;;;;;;;;;5103052;28;20204;-68
2022/05/08 09:06:36;;;;;;;15.13;13.70;;;;;;;;;;5102920;28;20227;-68
2022/05/08 09:09:21;;;;;;;14.75;13.25;;;;;;;;;;5103478;28;20211;-68
2022/05/08 09:11:47;;;;;;;14.27;12.85;;;;;;;;;;5102904;28;20203;-68
2022/05/08 09:14:26;;;;;;;13.38;12.18;;;;;;;;;;5102733;28;20215;-68
2022/05/08 09:16:54;;;;;;;14.38;13.07;;;;;;;;;;5102942;28;20362;-68
2022/05/08 09:19:29;;;;;;;14.40;12.85;;;;;;;;;;5103098;28;20200;-68
2022/05/08 09:21:58;;;;;;;14.70;13.00;;;;;;;;;;5102929;28;20522;-68
2022/05/08 09:24:24;;;;;;;13.93;12.52;;;;;;;;;;5102894;28;20192;-68
2022/05/08 09:26:51;;;;;;;12.63;11.40;;;;;;;;;;5102456;28;20199;-67
2022/05/08 09:29:21;;;;;;;13.23;11.93;;;;;;;;;;5102559;28;20196;-67
2022/05/08 09:31:47;;;;;;;14.50;12.95;;;;;;;;;;5102912;28;20196;-68
2022/05/08 09:34:15;;;;;;;11.85;10.77;;;;;;;;;;5102491;28;20292;-68
2022/05/08 09:36:41;;;;;;;11.60;10.48;;;;;;;;;;5102383;28;20275;-68
2022/05/08 09:39:08;;;;;;;9.82;8.82;;;;;;;;;;5102859;28;20284;-68
2022/05/08 09:41:35;;;;;;;7.65;6.75;;;;;;;;;;5102416;28;20241;-68
2022/05/08 09:44:09;;;;;;;7.65;6.93;;;;;;;;;;5102389;28;20492;-68
2022/05/08 09:46:36;;;;;;;7.50;6.80;;;;;;;;;;5102263;28;20196;-68
2022/05/08 09:49:03;;;;;;;8.35;7.55;;;;;;;;;;5102072;28;20203;-68
2022/05/08 09:51:32;;;;;;;8.05;7.35;;;;;;;;;;5102753;28;20269;-68
2022/05/08 09:53:58;;;;;;;7.40;6.70;;;;;;;;;;5102064;28;20289;-68
2022/05/08 09:56:25;;;;;;;6.50;6.00;;;;;;;;;;5102272;28;20210;-68
2022/05/08 09:58:51;;;;;;;6.93;6.43;;;;;;;;;;5102478;28;20503;-68
2022/05/08 10:01:17;;;;;;;7.03;6.30;;;;;;;;;;5102440;28;20195;-68
2022/05/08 10:03:44;;;;;;;6.40;5.90;;;;;;;;;;5102308;28;20242;-68
2022/05/08 10:06:11;;;;;;;10.20;5.85;;;;;;;;;;5102002;28;20539;-68
2022/05/08 10:08:39;;;;;;;8.60;7.10;;;;;;;;;;5102305;28;20195;-68
2022/05/08 10:14:04;;;;;;;7.63;6.88;;;;;;;;;;5102012;28;20530;-68
2022/05/08 10:16:50;;;;;;;6.78;6.07;;;;;;;;;;5101925;28;20223;-68
2022/05/08 10:19:35;;;;;;;5.53;5.22;;;;;;;;;;5102405;28;20226;-68
2022/05/08 10:22:06;;;;;;;8.32;5.20;;;;;;;;;;5102270;28;20218;-68
2022/05/08 10:24:34;;;;;;;7.85;6.10;;;;;;;;;;5102247;28;20511;-68
2022/05/08 10:27:10;;;;;;;5.82;4.47;;;;;;;;;;5101875;28;20202;-68
2022/05/08 10:29:36;;;;;;;4.82;4.53;;;;;;;;;;5102107;28;20515;-68
2022/05/08 10:32:03;;;;;;;5.10;4.70;;;;;;;;;;5102060;28;20242;-68
2022/05/08 10:34:31;;;;;;;5.07;4.78;;;;;;;;;;5102495;28;20273;-68
2022/05/08 10:37:16;;;;;;;6.57;5.10;;;;;;;;;;5101992;28;20196;-68
2022/05/08 10:39:45;;;;;;;5.35;4.85;;;;;;;;;;5101949;28;20215;-68
2022/05/08 10:42:26;;;;;;;4.75;4.40;;;;;;;;;;5101928;28;20231;-68
2022/05/08 10:44:52;;;;;;;6.80;5.70;;;;;;;;;;5101893;28;20230;-68
2022/05/08 10:47:40;;;;;;;5.38;4.97;;;;;;;;;;5102001;28;20203;-68
2022/05/08 10:50:07;;;;;;;6.80;4.72;;;;;;;;;;5102464;28;20203;-68
2022/05/08 10:52:34;;;;;;;5.18;4.82;;;;;;;;;;5101904;28;20195;-68
2022/05/08 10:55:02;;;;;;;6.63;4.80;;;;;;;;;;5101881;28;20220;-68
2022/05/08 10:57:29;;;;;;;6.60;4.88;;;;;;;;;;5101763;28;20503;-68
2022/05/08 10:59:55;;;;;;;6.28;5.63;;;;;;;;;;5101881;28;20195;-68
2022/05/08 11:02:36;;;;;;;5.63;5.22;;;;;;;;;;5104310;28;20203;-68
2022/05/08 11:05:03;;;;;;;4.53;4.30;;;;;;;;;;5105626;28;20219;-68
2022/05/08 11:07:29;;;;;;;4.60;4.30;;;;;;;;;;5105679;28;20200;-68
2022/05/08 11:09:55;;;;;;;5.47;4.28;;;;;;;;;;5105711;28;20195;-68
2022/05/08 11:12:24;;;;;;;4.40;4.10;;;;;;;;;;5105426;28;20203;-68
2022/05/08 11:14:50;;;;;;;7.70;4.03;;;;;;;;;;5105277;28;20233;-68
2022/05/08 11:17:18;;;;;;;4.40;4.20;;;;;;;;;;5105051;28;20230;-68
2022/05/08 11:19:51;;;;;;;8.07;3.85;;;;;;;;;;5105468;28;20195;-68
2022/05/08 11:22:17;;;;;;;7.75;4.07;;;;;;;;;;5105230;28;20199;-68
2022/05/08 11:24:45;;;;;;;5.07;3.70;;;;;;;;;;5105002;28;20192;-68
2022/05/08 11:27:12;;;;;;;5.22;4.00;;;;;;;;;;5104994;28;20195;-68
2022/05/08 11:29:46;;;;;;;3.53;3.25;;;;;;;;;;5105033;28;20200;-68
2022/05/08 11:38:01;;;;;;;4.75;3.10;;;;;;;;;;5104862;28;20205;-68
2022/05/08 11:40:27;;;;;;;3.53;2.90;;;;;;;;;;5105199;28;20203;-68
2022/05/08 11:42:54;;;;;;;3.08;2.88;;;;;;;;;;5104802;28;20214;-68
2022/05/08 11:45:21;;;;;;;3.17;2.90;;;;;;;;;;5104776;28;20191;-68
2022/05/08 11:47:50;;;;;;;2.63;2.50;;;;;;;;;;5104805;28;20242;-68
2022/05/08 11:50:16;;;;;;;3.00;2.80;;;;;;;;;;5104919;28;20206;-68
2022/05/08 11:52:42;;;;;;;2.92;2.72;;;;;;;;;;5104631;28;20202;-68
2022/05/08 11:55:09;;;;;;;2.50;2.40;;;;;;;;;;5104696;28;20215;-68
2022/05/08 11:57:41;;;;;;;3.60;3.03;;;;;;;;;;5104596;28;20393;-68
2022/05/08 12:00:08;;;;;;;3.08;2.90;;;;;;;;;;5104579;28;20195;-68
2022/05/08 12:02:39;;;;;;;3.10;2.90;;;;;;;;;;5104293;28;20203;-68
2022/05/08 12:05:06;;;;;;;3.33;3.00;;;;;;;;;;5104203;28;20215;-68
2022/05/08 12:07:38;;;;;;;4.78;3.30;;;;;;;;;;5103958;28;20210;-68
2022/05/08 12:10:05;;;;;;;3.28;2.85;;;;;;;;;;5104456;28;20340;-68
2022/05/08 12:12:33;;;;;;;3.05;2.92;;;;;;;;;;5104085;28;20202;-68
2022/05/08 12:15:01;;;;;;;3.45;3.25;;;;;;;;;;5104093;28;20234;-68
2022/05/08 12:17:27;;;;;;;3.30;3.10;;;;;;;;;;5103799;28;20271;-68
2022/05/08 12:19:55;;;;;;;2.88;2.78;;;;;;;;;;5103963;28;20199;-68
2022/05/08 12:22:24;;;;;;;3.65;2.40;;;;;;;;;;5103955;28;20272;-68
2022/05/08 12:24:50;;;;;;;3.55;2.97;;;;;;;;;;5104117;28;20263;-68
2022/05/08 12:27:16;;;;;;;2.95;2.50;;;;;;;;;;5103834;28;20199;-68
2022/05/08 12:29:45;;;;;;;3.70;2.92;;;;;;;;;;5103978;28;20217;-68
2022/05/08 12:32:12;;;;;;;2.83;2.63;;;;;;;;;;5103840;28;20196;-68
2022/05/08 12:34:40;;;;;;;3.45;3.10;;;;;;;;;;5103614;28;20258;-68
2022/05/08 12:37:08;;;;;;;3.60;3.08;;;;;;;;;;5103570;28;20427;-68
2022/05/08 12:39:35;;;;;;;2.88;2.78;;;;;;;;;;5103829;28;20202;-68
2022/05/08 12:42:01;;;;;;;4.50;3.13;;;;;;;;;;5103714;28;20515;-68
2022/05/08 12:44:27;;;;;;;2.75;2.55;;;;;;;;;;5103698;28;20223;-68
2022/05/08 12:46:54;;;;;;;3.58;3.33;;;;;;;;;;5103162;28;20192;-68
2022/05/08 12:49:20;;;;;;;3.42;3.15;;;;;;;;;;5103744;28;20215;-68
2022/05/08 12:51:46;;;;;;;3.40;3.00;;;;;;;;;;5103533;28;20195;-68
2022/05/08 12:54:14;;;;;;;3.28;3.08;;;;;;;;;;5103424;28;20195;-68
2022/05/08 12:56:40;;;;;;;3.20;3.10;;;;;;;;;;5103468;28;20418;-68
2022/05/08 13:01:51;;;;;;;3.58;3.28;;;;;;;;;;5103177;28;20191;-68
2022/05/08 13:04:17;;;;;;;3.10;2.90;;;;;;;;;;5103358;28;20195;-68
2022/05/08 13:06:43;;;;;;;3.30;3.10;;;;;;;;;;5102948;28;20429;-68
2022/05/08 13:09:10;;;;;;;5.60;3.90;;;;;;;;;;5103596;28;20203;-68
2022/05/08 13:11:38;;;;;;;3.50;3.25;;;;;;;;;;5103104;28;20270;-68
2022/05/08 13:14:05;;;;;;;3.35;3.15;;;;;;;;;;5102972;28;20195;-68
2022/05/08 13:16:32;;;;;;;4.78;3.50;;;;;;;;;;5102994;28;20223;-68
2022/05/08 13:18:58;;;;;;;3.60;3.47;;;;;;;;;;5103311;28;20201;-68
2022/05/08 13:21:25;;;;;;;3.38;3.08;;;;;;;;;;5102951;28;20199;-68
2022/05/08 13:23:51;;;;;;;3.50;3.25;;;;;;;;;;5102381;28;20199;-68
2022/05/08 13:26:17;;;;;;;3.55;3.17;;;;;;;;;;5102648;28;20226;-68
2022/05/08 13:28:45;;;;;;;4.22;3.15;;;;;;;;;;5102742;28;20425;-68
2022/05/08 13:31:12;;;;;;;5.97;3.45;;;;;;;;;;5103015;28;20203;-68
2022/05/08 13:33:38;;;;;;;3.28;3.10;;;;;;;;;;5102691;28;20241;-68
2022/05/08 13:36:04;;;;;;;4.97;3.45;;;;;;;;;;5102197;28;20215;-68
2022/05/08 13:38:31;;;;;;;6.22;3.08;;;;;;;;;;5102425;28;20199;-68
2022/05/08 13:40:57;;;;;;;3.55;3.35;;;;;;;;;;5103176;28;20304;-68
2022/05/08 13:43:24;;;;;;;4.38;3.72;;;;;;;;;;5102478;28;20195;-68
2022/05/08 13:45:52;;;;;;;3.40;3.10;;;;;;;;;;5102684;28;20201;-68
2022/05/08 13:48:19;;;;;;;3.60;2.95;;;;;;;;;;5102544;28;20549;-68
2022/05/08 13:50:47;;;;;;;3.90;2.85;;;;;;;;;;5102501;28;20195;-68
2022/05/08 13:53:14;;;;;;;3.83;3.40;;;;;;;;;;5102513;28;20196;-68
2022/05/08 13:55:41;;;;;;;3.42;3.13;;;;;;;;;;5102241;28;20261;-68
2022/05/08 13:58:07;;;;;;;3.33;2.90;;;;;;;;;;5102440;28;20199;-68
2022/05/08 14:00:34;;;;;;;3.13;2.85;;;;;;;;;;5102575;28;20233;-68
2022/05/08 14:03:02;;;;;;;3.72;3.20;;;;;;;;;;5102320;28;20211;-68
2022/05/08 14:05:28;;;;;;;5.35;3.40;;;;;;;;;;5102243;28;20329;-68
2022/05/08 14:07:54;;;;;;;5.10;2.90;;;;;;;;;;5101762;28;20196;-68
2022/05/08 14:10:21;;;;;;;6.78;3.40;;;;;;;;;;5101851;28;20233;-68
2022/05/08 14:12:47;;;;;;;2.97;2.88;;;;;;;;;;5101869;28;20509;-68
2022/05/08 14:15:14;;;;;;;3.60;3.40;;;;;;;;;;5102208;28;20425;-68
2022/05/08 14:17:40;;;;;;;4.38;3.45;;;;;;;;;;5101877;28;20203;-68
2022/05/08 14:20:10;;;;;;;4.93;3.40;;;;;;;;;;5101972;28;20202;-68
2022/05/08 14:22:36;;;;;;;3.67;3.13;;;;;;;;;;5101980;28;20361;-68
2022/05/08 14:25:03;;;;;;;3.58;3.28;;;;;;;;;;5102364;28;20199;-68
2022/05/08 14:27:29;;;;;;;3.00;2.90;;;;;;;;;;5101616;28;20199;-68
2022/05/08 14:29:56;;;;;;;3.20;3.05;;;;;;;;;;5101996;28;20199;-68
2022/05/08 14:37:52;;;;;;;3.13;2.92;;;;;;;;;;5105524;28;20238;-68
2022/05/08 14:40:18;;;;;;;3.72;3.00;;;;;;;;;;5105794;28;20203;-68
2022/05/08 14:42:48;;;;;;;2.78;2.67;;;;;;;;;;5106101;28;20203;-68
2022/05/08 14:45:14;;;;;;;3.03;2.55;;;;;;;;;;5106292;28;20195;-68
2022/05/08 14:47:41;;;;;;;2.97;2.40;;;;;;;;;;5105674;28;20257;-68
2022/05/08 14:50:08;;;;;;;3.30;2.92;;;;;;;;;;5105820;28;20218;-68
2022/05/08 14:52:34;;;;;;;2.75;2.65;;;;;;;;;;5105922;28;20237;-68
2022/05/08 14:55:02;;;;;;;2.47;2.38;;;;;;;;;;5105918;28;20196;-68
2022/05/08 14:57:28;;;;;;;2.70;2.50;;;;;;;;;;5105427;28;20236;-68
2022/05/08 14:59:54;;;;;;;2.28;2.17;;;;;;;;;;5105627;28;20203;-68
2022/05/08 15:02:21;;;;;;;4.22;2.28;;;;;;;;;;5105333;28;20207;-68
2022/05/08 15:04:49;;;;;;;4.22;2.17;;;;;;;;;;5105441;28;20207;-68
2022/05/08 15:07:15;;;;;;;2.92;2.55;;;;;;;;;;5105422;28;20199;-68